createdAt,value
2017-05-31T00:00:40.217Z,15.05
2017-05-31T00:01:39.276Z,15.01
2017-05-31T00:02:39.667Z,15.05
2017-05-31T00:03:39.600Z,14.97
2017-05-31T00:04:40.246Z,15
2017-05-31T00:05:39.688Z,15.01
2017-05-31T00:06:39.275Z,15.04
2017-05-31T00:07:39.274Z,15.01
2017-05-31T00:08:39.568Z,15.01
2017-05-31T00:09:39.582Z,15.02
2017-05-31T00:10:40.312Z,15.01
2017-05-31T00:11:39.377Z,15.08
2017-05-31T00:12:39.575Z,15.07
2017-05-31T00:13:39.248Z,15.1
2017-05-31T00:14:39.227Z,15.02
2017-05-31T00:15:39.224Z,15.15
2017-05-31T00:16:39.589Z,15.15
2017-05-31T00:17:39.898Z,15.15
2017-05-31T00:18:39.542Z,15.1
2017-05-31T00:19:39.527Z,15.2
2017-05-31T00:20:39.212Z,15.23
2017-05-31T00:21:39.524Z,15.19
2017-05-31T00:22:39.208Z,15.22
2017-05-31T00:23:39.647Z,15.23
2017-05-31T00:24:39.511Z,15.23
2017-05-31T00:25:39.508Z,15.33
2017-05-31T00:26:38.857Z,15.33
2017-05-31T00:27:39.710Z,15.38
2017-05-31T00:28:39.856Z,15.37
2017-05-31T00:29:39.540Z,15.45
2017-05-31T00:30:40.254Z,15.37
2017-05-31T00:31:39.167Z,15.43
2017-05-31T00:32:39.162Z,15.44
2017-05-31T00:33:39.408Z,15.44
2017-05-31T00:34:39.150Z,15.43
2017-05-31T00:35:39.470Z,15.44
2017-05-31T00:36:39.306Z,15.44
2017-05-31T00:37:39.435Z,15.58
2017-05-31T00:38:39.141Z,15.55
2017-05-31T00:39:39.456Z,15.44
2017-05-31T00:40:39.129Z,15.55
2017-05-31T00:41:39.954Z,15.56
2017-05-31T00:42:39.346Z,15.52
2017-05-31T00:43:39.593Z,15.45
2017-05-31T00:44:38.795Z,15.56
2017-05-31T00:45:39.361Z,15.53
2017-05-31T00:46:39.275Z,15.62
2017-05-31T00:47:39.426Z,15.63
2017-05-31T00:48:39.433Z,15.62
2017-05-31T00:49:39.673Z,15.65
2017-05-31T00:50:40.262Z,15.67
2017-05-31T00:51:39.091Z,15.73
2017-05-31T00:52:39.096Z,15.71
2017-05-31T00:53:39.451Z,15.8
2017-05-31T00:54:39.424Z,15.75
2017-05-31T00:55:39.762Z,15.93
2017-05-31T00:56:39.409Z,15.95
2017-05-31T00:57:39.097Z,15.86
2017-05-31T00:58:39.136Z,15.84
2017-05-31T00:59:39.673Z,15.89
2017-05-31T01:00:39.403Z,15.93
2017-05-31T01:01:39.396Z,15.93
2017-05-31T01:02:39.197Z,15.89
2017-05-31T01:03:39.373Z,16.02
2017-05-31T01:04:39.374Z,16.1
2017-05-31T01:05:39.043Z,16.02
2017-05-31T01:06:39.337Z,16.07
2017-05-31T01:07:39.038Z,16.04
2017-05-31T01:08:39.378Z,16.04
2017-05-31T01:09:38.727Z,16.1
2017-05-31T01:10:39.361Z,16.07
2017-05-31T01:11:39.510Z,16.02
2017-05-31T01:12:39.573Z,16.14
2017-05-31T01:13:38.709Z,16.13
2017-05-31T01:14:39.018Z,16.11
2017-05-31T01:15:38.904Z,16.16
2017-05-31T01:16:39.112Z,16.18
2017-05-31T01:17:39.364Z,16.18
2017-05-31T01:18:38.678Z,16.3
2017-05-31T01:19:39.332Z,16.32
2017-05-31T01:20:39.754Z,16.25
2017-05-31T01:21:38.998Z,16.27
2017-05-31T01:22:39.331Z,16.27
2017-05-31T01:23:39.319Z,16.27
2017-05-31T01:24:38.908Z,16.3
2017-05-31T01:25:39.305Z,16.27
2017-05-31T01:26:39.304Z,16.29
2017-05-31T01:27:39.315Z,16.32
2017-05-31T01:28:39.763Z,16.29
2017-05-31T01:29:39.299Z,16.29
2017-05-31T01:30:39.666Z,16.29
2017-05-31T01:31:39.879Z,16.32
2017-05-31T01:32:40.116Z,16.21
2017-05-31T01:33:38.956Z,16.33
2017-05-31T01:34:38.647Z,16.32
2017-05-31T01:35:39.294Z,16.26
2017-05-31T01:36:39.274Z,16.33
2017-05-31T01:37:39.220Z,16.29
2017-05-31T01:38:39.778Z,16.3
2017-05-31T01:39:39.727Z,16.3
2017-05-31T01:40:38.946Z,16.44
2017-05-31T01:41:39.271Z,16.37
2017-05-31T01:42:38.609Z,16.44
2017-05-31T01:43:38.923Z,16.42
2017-05-31T01:44:38.937Z,16.4
2017-05-31T01:45:39.379Z,16.52
2017-05-31T01:46:39.716Z,16.45
2017-05-31T01:47:39.432Z,16.44
2017-05-31T01:48:39.235Z,16.49
2017-05-31T01:49:39.249Z,16.45
2017-05-31T01:50:38.916Z,16.42
2017-05-31T01:51:39.227Z,16.52
2017-05-31T01:52:38.902Z,16.55
2017-05-31T01:53:38.898Z,16.57
2017-05-31T01:54:39.220Z,16.57
2017-05-31T01:55:38.572Z,16.55
2017-05-31T01:56:39.667Z,16.63
2017-05-31T01:57:39.212Z,16.62
2017-05-31T01:58:38.897Z,16.62
2017-05-31T01:59:39.224Z,16.55
2017-05-31T02:00:38.905Z,16.62
2017-05-31T02:01:39.199Z,16.54
2017-05-31T02:02:40.062Z,16.63
2017-05-31T02:03:39.199Z,16.57
2017-05-31T02:04:38.887Z,16.65
2017-05-31T02:05:39.187Z,16.65
2017-05-31T02:06:38.866Z,16.69
2017-05-31T02:07:39.206Z,16.74
2017-05-31T02:08:40.136Z,16.7
2017-05-31T02:09:39.347Z,16.7
2017-05-31T02:10:39.214Z,16.69
2017-05-31T02:11:38.854Z,16.69
2017-05-31T02:12:39.173Z,16.69
2017-05-31T02:13:39.168Z,16.66
2017-05-31T02:14:39.057Z,16.7
2017-05-31T02:15:38.994Z,16.65
2017-05-31T02:16:38.843Z,16.66
2017-05-31T02:17:39.159Z,16.7
2017-05-31T02:18:39.160Z,16.74
2017-05-31T02:19:39.934Z,16.72
2017-05-31T02:20:39.998Z,16.76
2017-05-31T02:21:38.884Z,16.73
2017-05-31T02:22:39.146Z,16.72
2017-05-31T02:23:39.162Z,16.77
2017-05-31T02:24:39.974Z,16.67
2017-05-31T02:25:39.474Z,16.7
2017-05-31T02:26:38.935Z,16.72
2017-05-31T02:27:38.805Z,16.7
2017-05-31T02:28:39.122Z,16.73
2017-05-31T02:29:39.126Z,16.69
2017-05-31T02:30:39.120Z,16.74
2017-05-31T02:31:39.557Z,16.67
2017-05-31T02:32:39.886Z,16.7
2017-05-31T02:33:39.551Z,16.7
2017-05-31T02:34:39.146Z,16.7
2017-05-31T02:35:39.111Z,16.69
2017-05-31T02:36:39.109Z,16.67
2017-05-31T02:37:39.106Z,16.7
2017-05-31T02:38:39.095Z,16.74
2017-05-31T02:39:38.765Z,16.72
2017-05-31T02:40:39.691Z,16.7
2017-05-31T02:41:39.465Z,16.67
2017-05-31T02:42:38.765Z,16.66
2017-05-31T02:43:38.765Z,16.66
2017-05-31T02:44:38.761Z,16.66
2017-05-31T02:45:38.758Z,16.65
2017-05-31T02:46:39.761Z,16.72
2017-05-31T02:47:39.181Z,16.73
2017-05-31T02:48:39.678Z,16.73
2017-05-31T02:49:39.493Z,16.73
2017-05-31T02:50:38.744Z,16.74
2017-05-31T02:51:39.062Z,16.72
2017-05-31T02:52:38.740Z,16.69
2017-05-31T02:53:40.214Z,16.7
2017-05-31T02:54:39.807Z,16.72
2017-05-31T02:55:38.731Z,16.77
2017-05-31T02:56:38.732Z,16.72
2017-05-31T02:57:38.403Z,16.69
2017-05-31T02:58:39.167Z,16.69
2017-05-31T02:59:39.316Z,16.73
2017-05-31T03:00:39.559Z,16.72
2017-05-31T03:01:39.040Z,16.69
2017-05-31T03:02:38.711Z,16.72
2017-05-31T03:03:39.030Z,16.65
2017-05-31T03:04:39.514Z,16.67
2017-05-31T03:05:39.420Z,16.69
2017-05-31T03:06:38.722Z,16.65
2017-05-31T03:07:39.022Z,16.66
2017-05-31T03:08:38.387Z,16.62
2017-05-31T03:09:39.499Z,16.66
2017-05-31T03:10:39.079Z,16.58
2017-05-31T03:11:39.288Z,16.59
2017-05-31T03:12:38.684Z,16.63
2017-05-31T03:13:38.690Z,16.58
2017-05-31T03:14:38.995Z,16.58
2017-05-31T03:15:38.987Z,16.59
2017-05-31T03:16:38.353Z,16.51
2017-05-31T03:17:40.029Z,16.52
2017-05-31T03:18:39.151Z,16.44
2017-05-31T03:19:38.349Z,16.47
2017-05-31T03:20:38.702Z,16.48
2017-05-31T03:21:39.005Z,16.52
2017-05-31T03:22:38.988Z,16.54
2017-05-31T03:23:38.656Z,16.45
2017-05-31T03:24:38.652Z,16.45
2017-05-31T03:25:39.005Z,16.44
2017-05-31T03:26:38.970Z,16.4
2017-05-31T03:27:38.319Z,16.37
2017-05-31T03:28:38.328Z,16.44
2017-05-31T03:29:38.961Z,16.39
2017-05-31T03:30:38.632Z,16.4
2017-05-31T03:31:38.951Z,16.33
2017-05-31T03:32:38.623Z,16.44
2017-05-31T03:33:38.626Z,16.32
2017-05-31T03:34:38.956Z,16.34
2017-05-31T03:35:38.619Z,16.34
2017-05-31T03:36:38.612Z,16.4
2017-05-31T03:37:38.959Z,16.36
2017-05-31T03:38:38.611Z,16.4
2017-05-31T03:39:39.125Z,16.42
2017-05-31T03:40:38.280Z,16.39
2017-05-31T03:41:38.921Z,16.33
2017-05-31T03:42:38.606Z,16.34
2017-05-31T03:43:38.941Z,16.42
2017-05-31T03:44:38.918Z,16.37
2017-05-31T03:45:38.911Z,16.32
2017-05-31T03:46:38.903Z,16.42
2017-05-31T03:47:38.277Z,16.36
2017-05-31T03:48:38.583Z,16.4
2017-05-31T03:49:38.597Z,16.34
2017-05-31T03:50:38.911Z,16.26
2017-05-31T03:51:38.579Z,16.32
2017-05-31T03:52:38.569Z,16.3
2017-05-31T03:53:38.576Z,16.3
2017-05-31T03:54:38.576Z,16.3
2017-05-31T03:55:38.880Z,16.33
2017-05-31T03:56:38.878Z,16.25
2017-05-31T03:57:38.549Z,16.3
2017-05-31T03:58:38.566Z,16.26
2017-05-31T03:59:38.884Z,16.26
2017-05-31T04:00:38.875Z,16.3
2017-05-31T04:01:38.551Z,16.36
2017-05-31T04:02:39.612Z,16.3
2017-05-31T04:03:38.859Z,16.36
2017-05-31T04:04:38.532Z,16.26
2017-05-31T04:05:38.859Z,16.34
2017-05-31T04:06:38.852Z,16.29
2017-05-31T04:07:38.847Z,16.29
2017-05-31T04:08:38.860Z,16.4
2017-05-31T04:09:38.842Z,16.3
2017-05-31T04:10:38.515Z,16.37
2017-05-31T04:11:38.854Z,16.42
2017-05-31T04:12:38.514Z,16.44
2017-05-31T04:13:38.851Z,16.37
2017-05-31T04:14:38.502Z,16.42
2017-05-31T04:15:38.821Z,16.36
2017-05-31T04:16:38.528Z,16.54
2017-05-31T04:17:38.494Z,16.4
2017-05-31T04:18:38.812Z,16.47
2017-05-31T04:19:38.820Z,16.48
2017-05-31T04:20:38.507Z,16.57
2017-05-31T04:21:38.847Z,16.48
2017-05-31T04:22:38.488Z,16.48
2017-05-31T04:23:38.803Z,16.52
2017-05-31T04:24:38.487Z,16.55
2017-05-31T04:25:38.490Z,16.63
2017-05-31T04:26:38.469Z,16.59
2017-05-31T04:27:38.790Z,16.63
2017-05-31T04:28:38.138Z,16.67
2017-05-31T04:29:38.779Z,16.52
2017-05-31T04:30:38.780Z,16.69
2017-05-31T04:31:38.483Z,16.55
2017-05-31T04:32:38.466Z,16.57
2017-05-31T04:33:38.769Z,16.52
2017-05-31T04:34:38.460Z,16.59
2017-05-31T04:35:38.452Z,16.51
2017-05-31T04:36:38.439Z,16.57
2017-05-31T04:37:38.785Z,16.48
2017-05-31T04:38:38.431Z,16.45
2017-05-31T04:39:38.984Z,16.47
2017-05-31T04:40:38.431Z,16.45
2017-05-31T04:41:38.747Z,16.45
2017-05-31T04:42:38.099Z,16.47
2017-05-31T04:43:38.445Z,16.51
2017-05-31T04:44:38.738Z,16.48
2017-05-31T04:45:38.111Z,16.48
2017-05-31T04:46:38.410Z,16.45
2017-05-31T04:47:38.103Z,16.48
2017-05-31T04:48:38.835Z,16.45
2017-05-31T04:49:38.400Z,16.52
2017-05-31T04:50:39.171Z,16.51
2017-05-31T04:51:38.958Z,16.49
2017-05-31T04:52:38.970Z,16.42
2017-05-31T04:53:38.557Z,16.45
2017-05-31T04:54:38.385Z,16.37
2017-05-31T04:55:38.710Z,16.33
2017-05-31T04:56:38.766Z,16.34
2017-05-31T04:57:38.439Z,16.36
2017-05-31T04:58:38.759Z,16.3
2017-05-31T04:59:38.480Z,16.42
2017-05-31T05:00:38.585Z,16.3
2017-05-31T05:01:39.087Z,16.32
2017-05-31T05:02:38.851Z,16.37
2017-05-31T05:03:39.227Z,16.27
2017-05-31T05:04:39.608Z,16.26
2017-05-31T05:05:39.090Z,16.3
2017-05-31T05:06:39.272Z,16.26
2017-05-31T05:07:38.644Z,16.33
2017-05-31T05:08:38.822Z,16.29
2017-05-31T05:09:38.041Z,16.33
2017-05-31T05:10:38.018Z,16.26
2017-05-31T05:11:38.015Z,16.29
2017-05-31T05:12:38.679Z,16.3
2017-05-31T05:13:38.681Z,16.18
2017-05-31T05:14:38.686Z,16.32
2017-05-31T05:15:38.359Z,16.3
2017-05-31T05:16:38.323Z,16.22
2017-05-31T05:17:38.681Z,16.27
2017-05-31T05:18:38.007Z,16.3
2017-05-31T05:19:38.635Z,16.32
2017-05-31T05:20:38.333Z,16.21
2017-05-31T05:21:38.632Z,16.25
2017-05-31T05:22:38.648Z,16.14
2017-05-31T05:23:37.983Z,16.29
2017-05-31T05:24:38.371Z,16.29
2017-05-31T05:25:38.631Z,16.21
2017-05-31T05:26:38.295Z,16.27
2017-05-31T05:27:38.294Z,16.26
2017-05-31T05:28:38.290Z,16.34
2017-05-31T05:29:38.310Z,16.27
2017-05-31T05:30:38.635Z,16.22
2017-05-31T05:31:38.607Z,16.11
2017-05-31T05:32:38.601Z,16.13
2017-05-31T05:33:38.280Z,16.17
2017-05-31T05:34:38.607Z,16.21
2017-05-31T05:35:38.267Z,16.21
2017-05-31T05:36:38.586Z,16.21
2017-05-31T05:37:38.592Z,16.18
2017-05-31T05:38:38.582Z,16.16
2017-05-31T05:39:38.259Z,16.21
2017-05-31T05:40:38.606Z,16.16
2017-05-31T05:41:38.594Z,16.17
2017-05-31T05:42:38.570Z,16.22
2017-05-31T05:43:38.588Z,16.18
2017-05-31T05:44:38.258Z,16.18
2017-05-31T05:45:38.237Z,16.18
2017-05-31T05:46:38.256Z,16.18
2017-05-31T05:47:38.548Z,16.22
2017-05-31T05:48:38.563Z,16.16
2017-05-31T05:49:38.226Z,16.13
2017-05-31T05:50:38.542Z,16.18
2017-05-31T05:51:38.539Z,16.17
2017-05-31T05:52:38.539Z,16.16
2017-05-31T05:53:38.219Z,16.26
2017-05-31T05:54:38.554Z,16.16
2017-05-31T05:55:38.205Z,16.16
2017-05-31T05:56:38.520Z,16.17
2017-05-31T05:57:38.521Z,16.14
2017-05-31T05:58:38.197Z,16.21
2017-05-31T05:59:38.192Z,16.16
2017-05-31T06:00:38.513Z,16.14
2017-05-31T06:01:38.505Z,16.1
2017-05-31T06:02:38.192Z,16.04
2017-05-31T06:03:37.860Z,16.07
2017-05-31T06:04:38.180Z,16.04
2017-05-31T06:05:37.883Z,15.93
2017-05-31T06:06:37.848Z,15.92
2017-05-31T06:07:38.169Z,15.93
2017-05-31T06:08:38.195Z,15.89
2017-05-31T06:09:38.234Z,15.93
2017-05-31T06:10:38.159Z,15.98
2017-05-31T06:11:38.154Z,15.95
2017-05-31T06:12:38.156Z,16.06
2017-05-31T06:13:38.149Z,16.13
2017-05-31T06:14:38.171Z,16.22
2017-05-31T06:15:37.842Z,16.17
2017-05-31T06:16:38.459Z,16.13
2017-05-31T06:17:38.462Z,16.14
2017-05-31T06:18:38.135Z,16.14
2017-05-31T06:19:38.472Z,16.16
2017-05-31T06:20:38.127Z,16.25
2017-05-31T06:21:38.459Z,16.29
2017-05-31T06:22:38.145Z,16.27
2017-05-31T06:23:38.455Z,16.26
2017-05-31T06:24:38.112Z,16.3
2017-05-31T06:25:38.119Z,16.18
2017-05-31T06:26:38.430Z,16.32
2017-05-31T06:27:38.436Z,16.26
2017-05-31T06:28:38.426Z,16.44
2017-05-31T06:29:38.101Z,16.37
2017-05-31T06:30:38.093Z,16.57
2017-05-31T06:31:38.095Z,16.44
2017-05-31T06:32:38.420Z,16.52
2017-05-31T06:33:37.764Z,16.59
2017-05-31T06:34:38.426Z,16.59
2017-05-31T06:35:38.080Z,16.59
2017-05-31T06:36:38.071Z,16.67
2017-05-31T06:37:38.084Z,16.85
2017-05-31T06:38:38.392Z,16.9
2017-05-31T06:39:38.075Z,17.07
2017-05-31T06:40:38.386Z,17.09
2017-05-31T06:41:38.073Z,17.22
2017-05-31T06:42:38.060Z,17.22
2017-05-31T06:43:38.391Z,17.22
2017-05-31T06:44:37.741Z,17.3
2017-05-31T06:45:38.399Z,17.22
2017-05-31T06:46:38.052Z,17.25
2017-05-31T06:47:38.376Z,17.12
2017-05-31T06:48:38.369Z,17.13
2017-05-31T06:49:38.057Z,17.15
2017-05-31T06:50:37.717Z,17.09
2017-05-31T06:51:37.719Z,17.03
2017-05-31T06:52:38.375Z,17
2017-05-31T06:53:38.363Z,17.1
2017-05-31T06:54:38.353Z,17.02
2017-05-31T06:55:38.351Z,17.05
2017-05-31T06:56:38.036Z,16.99
2017-05-31T06:57:38.343Z,17.05
2017-05-31T06:58:38.021Z,17.06
2017-05-31T06:59:38.347Z,17.18
2017-05-31T07:00:37.703Z,17.15
2017-05-31T07:01:38.335Z,17.17
2017-05-31T07:02:37.710Z,17.1
2017-05-31T07:03:38.013Z,17.1
2017-05-31T07:04:38.002Z,17.1
2017-05-31T07:05:37.999Z,17.13
2017-05-31T07:06:38.316Z,17.22
2017-05-31T07:07:38.000Z,17.15
2017-05-31T07:08:37.992Z,17.45
2017-05-31T07:09:37.667Z,17.52
2017-05-31T07:10:37.987Z,17.62
2017-05-31T07:11:37.986Z,17.63
2017-05-31T07:12:38.310Z,17.63
2017-05-31T07:13:37.986Z,17.73
2017-05-31T07:14:38.313Z,17.81
2017-05-31T07:15:38.297Z,17.87
2017-05-31T07:16:38.051Z,18.03
2017-05-31T07:17:37.974Z,18.08
2017-05-31T07:18:37.975Z,18.03
2017-05-31T07:19:38.041Z,18.14
2017-05-31T07:20:38.290Z,18.32
2017-05-31T07:21:38.289Z,18.39
2017-05-31T07:22:37.959Z,18.36
2017-05-31T07:23:38.286Z,18.32
2017-05-31T07:24:38.306Z,18.29
2017-05-31T07:25:38.024Z,18.29
2017-05-31T07:26:38.281Z,18.54
2017-05-31T07:27:38.279Z,18.82
2017-05-31T07:28:38.294Z,18.94
2017-05-31T07:29:37.629Z,19.02
2017-05-31T07:30:37.954Z,19.05
2017-05-31T07:31:37.952Z,19.2
2017-05-31T07:32:37.959Z,19.3
2017-05-31T07:33:37.635Z,19.79
2017-05-31T07:34:37.953Z,20.18
2017-05-31T07:35:38.270Z,20.16
2017-05-31T07:36:37.670Z,20.18
2017-05-31T07:37:37.964Z,20.49
2017-05-31T07:38:38.289Z,21.01
2017-05-31T07:39:37.968Z,21.61
2017-05-31T07:40:37.978Z,22.15
2017-05-31T07:41:38.263Z,22.55
2017-05-31T07:42:37.940Z,22.79
2017-05-31T07:43:37.942Z,23.26
2017-05-31T07:44:37.944Z,23.7
2017-05-31T07:45:37.620Z,24.18
2017-05-31T07:46:37.954Z,24.52
2017-05-31T07:47:38.275Z,25.26
2017-05-31T07:48:38.268Z,25.82
2017-05-31T07:49:37.950Z,25.67
2017-05-31T07:50:37.947Z,25.38
2017-05-31T07:51:37.960Z,25.02
2017-05-31T07:52:37.952Z,24.59
2017-05-31T07:53:37.979Z,24.15
2017-05-31T07:54:37.985Z,23.6
2017-05-31T07:55:37.979Z,23.15
2017-05-31T07:56:37.963Z,22.69
2017-05-31T07:57:37.962Z,22.31
2017-05-31T07:58:38.001Z,21.96
2017-05-31T07:59:37.972Z,21.76
2017-05-31T08:00:37.656Z,21.48
2017-05-31T08:01:38.292Z,21.31
2017-05-31T08:02:37.970Z,21.21
2017-05-31T08:03:38.292Z,21.15
2017-05-31T08:04:38.296Z,20.88
2017-05-31T08:05:37.653Z,20.71
2017-05-31T08:06:38.318Z,20.61
2017-05-31T08:07:38.302Z,20.42
2017-05-31T08:08:37.995Z,20.35
2017-05-31T08:09:38.314Z,20.32
2017-05-31T08:10:38.312Z,20.23
2017-05-31T08:11:38.328Z,20.11
2017-05-31T08:12:38.301Z,20.15
2017-05-31T08:13:37.983Z,20.07
2017-05-31T08:14:38.315Z,20.04
2017-05-31T08:15:37.989Z,20.19
2017-05-31T08:16:37.990Z,20.07
2017-05-31T08:17:37.988Z,20.04
2017-05-31T08:18:37.697Z,19.93
2017-05-31T08:19:38.323Z,19.82
2017-05-31T08:20:37.690Z,19.8
2017-05-31T08:21:38.012Z,19.79
2017-05-31T08:22:37.671Z,19.87
2017-05-31T08:23:38.311Z,19.92
2017-05-31T08:24:38.325Z,19.97
2017-05-31T08:25:38.312Z,19.95
2017-05-31T08:26:37.998Z,20.01
2017-05-31T08:27:38.343Z,19.97
2017-05-31T08:28:38.037Z,19.97
2017-05-31T08:29:38.316Z,20.1
2017-05-31T08:30:38.315Z,20
2017-05-31T08:31:37.993Z,20.01
2017-05-31T08:32:37.991Z,20.05
2017-05-31T08:33:37.995Z,20.18
2017-05-31T08:34:37.992Z,20.07
2017-05-31T08:35:38.315Z,20.05
2017-05-31T08:36:38.317Z,20.04
2017-05-31T08:37:38.350Z,20.07
2017-05-31T08:38:37.992Z,20.11
2017-05-31T08:39:38.313Z,20.07
2017-05-31T08:40:38.015Z,20.16
2017-05-31T08:41:38.014Z,20.18
2017-05-31T08:42:38.319Z,20.16
2017-05-31T08:43:37.995Z,20.25
2017-05-31T08:44:37.672Z,20.25
2017-05-31T08:45:38.320Z,20.32
2017-05-31T08:46:38.321Z,20.48
2017-05-31T08:47:38.337Z,20.63
2017-05-31T08:48:37.998Z,20.9
2017-05-31T08:49:37.693Z,21.09
2017-05-31T08:50:38.013Z,21.3
2017-05-31T08:51:38.318Z,21.46
2017-05-31T08:52:37.677Z,21.76
2017-05-31T08:53:38.323Z,21.97
2017-05-31T08:54:38.340Z,22.12
2017-05-31T08:55:38.013Z,22.23
2017-05-31T08:56:38.354Z,22.33
2017-05-31T08:57:38.006Z,22.2
2017-05-31T08:58:38.323Z,22.18
2017-05-31T08:59:38.330Z,22.23
2017-05-31T09:00:38.007Z,21.99
2017-05-31T09:01:38.356Z,21.77
2017-05-31T09:02:38.022Z,21.59
2017-05-31T09:03:38.335Z,21.78
2017-05-31T09:04:38.009Z,21.92
2017-05-31T09:05:38.016Z,21.97
2017-05-31T09:06:37.706Z,22.07
2017-05-31T09:07:38.033Z,22.02
2017-05-31T09:08:38.009Z,22.04
2017-05-31T09:09:38.023Z,22.09
2017-05-31T09:10:38.360Z,22
2017-05-31T09:11:38.019Z,22
2017-05-31T09:12:38.024Z,21.89
2017-05-31T09:13:38.357Z,21.92
2017-05-31T09:14:38.348Z,21.9
2017-05-31T09:15:38.345Z,21.94
2017-05-31T09:16:38.339Z,22.04
2017-05-31T09:17:38.347Z,21.94
2017-05-31T09:18:37.702Z,21.89
2017-05-31T09:19:38.375Z,21.9
2017-05-31T09:20:38.026Z,21.94
2017-05-31T09:21:38.029Z,22.04
2017-05-31T09:22:37.730Z,22.11
2017-05-31T09:23:38.353Z,22.27
2017-05-31T09:24:38.033Z,22.42
2017-05-31T09:25:37.711Z,22.57
2017-05-31T09:26:38.370Z,22.7
2017-05-31T09:27:38.370Z,22.78
2017-05-31T09:28:38.040Z,22.81
2017-05-31T09:29:38.360Z,22.94
2017-05-31T09:30:38.045Z,23.14
2017-05-31T09:31:38.059Z,23.24
2017-05-31T09:32:37.725Z,23.22
2017-05-31T09:33:38.369Z,23.4
2017-05-31T09:34:38.055Z,23.52
2017-05-31T09:35:38.056Z,23.29
2017-05-31T09:36:38.057Z,23.34
2017-05-31T09:37:38.059Z,23.28
2017-05-31T09:38:37.793Z,23.38
2017-05-31T09:39:38.059Z,23.47
2017-05-31T09:40:38.389Z,23.64
2017-05-31T09:41:38.069Z,24.04
2017-05-31T09:42:37.762Z,24.26
2017-05-31T09:43:38.067Z,24.34
2017-05-31T09:44:38.398Z,24.39
2017-05-31T09:45:38.130Z,24.21
2017-05-31T09:46:38.089Z,24.18
2017-05-31T09:47:38.089Z,24.09
2017-05-31T09:48:37.762Z,24.14
2017-05-31T09:49:38.104Z,23.85
2017-05-31T09:50:38.442Z,23.63
2017-05-31T09:51:38.092Z,23.47
2017-05-31T09:52:38.090Z,23.52
2017-05-31T09:53:38.092Z,23.45
2017-05-31T09:54:38.095Z,23.26
2017-05-31T09:55:38.105Z,23.16
2017-05-31T09:56:38.131Z,23.09
2017-05-31T09:57:38.432Z,22.91
2017-05-31T09:58:38.424Z,22.86
2017-05-31T09:59:37.787Z,22.75
2017-05-31T10:00:38.112Z,22.73
2017-05-31T10:01:38.119Z,22.78
2017-05-31T10:02:38.446Z,22.76
2017-05-31T10:03:38.117Z,22.7
2017-05-31T10:04:38.449Z,22.64
2017-05-31T10:05:37.803Z,22.52
2017-05-31T10:06:38.124Z,22.42
2017-05-31T10:07:38.126Z,22.49
2017-05-31T10:08:38.471Z,22.42
2017-05-31T10:09:38.453Z,22.51
2017-05-31T10:10:38.454Z,22.55
2017-05-31T10:11:38.461Z,22.6
2017-05-31T10:12:38.505Z,22.61
2017-05-31T10:13:38.153Z,22.67
2017-05-31T10:14:38.461Z,22.6
2017-05-31T10:15:38.164Z,22.71
2017-05-31T10:16:38.483Z,22.73
2017-05-31T10:17:38.148Z,22.73
2017-05-31T10:18:37.827Z,22.86
2017-05-31T10:19:38.474Z,23.04
2017-05-31T10:20:38.157Z,23.15
2017-05-31T10:21:37.833Z,23.35
2017-05-31T10:22:38.500Z,23.4
2017-05-31T10:23:38.480Z,23.44
2017-05-31T10:24:38.485Z,23.28
2017-05-31T10:25:38.485Z,23.16
2017-05-31T10:26:38.169Z,23.18
2017-05-31T10:27:38.168Z,23.16
2017-05-31T10:28:38.169Z,22.99
2017-05-31T10:29:38.511Z,22.76
2017-05-31T10:30:38.493Z,22.51
2017-05-31T10:31:38.500Z,22.55
2017-05-31T10:32:38.494Z,22.67
2017-05-31T10:33:38.509Z,22.73
2017-05-31T10:34:38.517Z,22.92
2017-05-31T10:35:38.189Z,23.14
2017-05-31T10:36:38.527Z,23.29
2017-05-31T10:37:38.184Z,23.37
2017-05-31T10:38:37.864Z,23.44
2017-05-31T10:39:38.515Z,23.35
2017-05-31T10:40:38.662Z,23.07
2017-05-31T10:41:38.516Z,22.81
2017-05-31T10:42:44.464Z,22.48
2017-05-31T10:43:38.203Z,22.27
2017-05-31T10:44:38.196Z,22.24
2017-05-31T10:45:38.535Z,22.36
2017-05-31T10:46:38.535Z,22.36
2017-05-31T10:47:38.527Z,22.22
2017-05-31T10:48:38.534Z,22.18
2017-05-31T10:49:38.541Z,22.3
2017-05-31T10:50:38.211Z,22.34
2017-05-31T10:51:37.892Z,22.33
2017-05-31T10:52:38.533Z,22
2017-05-31T10:53:38.537Z,21.97
2017-05-31T10:54:38.223Z,21.82
2017-05-31T10:55:38.222Z,21.74
2017-05-31T10:56:38.554Z,21.61
2017-05-31T10:57:38.569Z,21.62
2017-05-31T10:58:38.577Z,21.62
2017-05-31T10:59:38.228Z,21.71
2017-05-31T11:00:38.226Z,21.83
2017-05-31T11:01:38.572Z,21.93
2017-05-31T11:02:38.578Z,21.83
2017-05-31T11:03:38.561Z,21.94
2017-05-31T11:04:38.247Z,21.94
2017-05-31T11:05:38.240Z,22.04
2017-05-31T11:06:38.233Z,22.23
2017-05-31T11:07:37.935Z,22.33
2017-05-31T11:08:38.239Z,22.24
2017-05-31T11:09:38.321Z,22.24
2017-05-31T11:10:37.921Z,22.3
2017-05-31T11:11:38.240Z,22.31
2017-05-31T11:12:38.565Z,22.05
2017-05-31T11:13:38.577Z,21.97
2017-05-31T11:14:37.926Z,21.76
2017-05-31T11:15:38.575Z,21.62
2017-05-31T11:16:38.573Z,21.46
2017-05-31T11:17:38.571Z,21.4
2017-05-31T11:18:38.574Z,21.41
2017-05-31T11:19:38.258Z,21.37
2017-05-31T11:20:38.594Z,21.45
2017-05-31T11:21:37.953Z,21.58
2017-05-31T11:22:38.265Z,21.73
2017-05-31T11:23:38.270Z,21.86
2017-05-31T11:24:38.277Z,22.04
2017-05-31T11:25:37.940Z,22.11
2017-05-31T11:26:38.288Z,22.15
2017-05-31T11:27:38.289Z,22.26
2017-05-31T11:28:38.287Z,22.36
2017-05-31T11:29:38.270Z,22.41
2017-05-31T11:30:38.592Z,22.31
2017-05-31T11:31:37.970Z,22.46
2017-05-31T11:32:37.967Z,22.51
2017-05-31T11:33:38.597Z,22.41
2017-05-31T11:34:37.951Z,22.55
2017-05-31T11:35:38.636Z,22.63
2017-05-31T11:36:38.304Z,22.94
2017-05-31T11:37:38.610Z,22.71
2017-05-31T11:38:38.282Z,22.67
2017-05-31T11:39:38.294Z,22.41
2017-05-31T11:40:38.286Z,22.45
2017-05-31T11:41:38.606Z,22.39
2017-05-31T11:42:38.287Z,22.42
2017-05-31T11:43:38.289Z,22.49
2017-05-31T11:44:38.315Z,22.51
2017-05-31T11:45:38.640Z,22.39
2017-05-31T11:46:38.300Z,22.55
2017-05-31T11:47:38.619Z,22.54
2017-05-31T11:48:38.319Z,22.64
2017-05-31T11:49:38.318Z,22.57
2017-05-31T11:50:38.658Z,22.66
2017-05-31T11:51:38.325Z,22.81
2017-05-31T11:52:38.308Z,22.89
2017-05-31T11:53:38.309Z,22.91
2017-05-31T11:54:38.317Z,23
2017-05-31T11:55:37.988Z,22.99
2017-05-31T11:56:38.325Z,22.97
2017-05-31T11:57:37.991Z,22.94
2017-05-31T11:58:38.318Z,22.84
2017-05-31T11:59:38.318Z,22.76
2017-05-31T12:00:38.650Z,22.66
2017-05-31T12:01:38.320Z,22.51
2017-05-31T12:02:38.657Z,22.36
2017-05-31T12:03:38.332Z,22.2
2017-05-31T12:04:38.333Z,22.08
2017-05-31T12:05:38.343Z,22.07
2017-05-31T12:06:38.337Z,22.04
2017-05-31T12:07:38.351Z,21.92
2017-05-31T12:08:38.662Z,21.89
2017-05-31T12:09:38.656Z,22.05
2017-05-31T12:10:38.699Z,22.05
2017-05-31T12:11:38.337Z,22.18
2017-05-31T12:12:38.354Z,22.41
2017-05-31T12:13:38.664Z,22.6
2017-05-31T12:14:38.667Z,22.75
2017-05-31T12:15:38.672Z,22.89
2017-05-31T12:16:38.672Z,22.99
2017-05-31T12:17:38.672Z,23.06
2017-05-31T12:18:38.674Z,23.18
2017-05-31T12:19:38.694Z,23.1
2017-05-31T12:20:38.676Z,23.04
2017-05-31T12:21:38.677Z,23.04
2017-05-31T12:22:38.355Z,22.99
2017-05-31T12:23:38.373Z,23.01
2017-05-31T12:24:38.042Z,23.03
2017-05-31T12:25:38.367Z,23.22
2017-05-31T12:26:38.688Z,23
2017-05-31T12:27:38.708Z,22.76
2017-05-31T12:28:38.052Z,22.52
2017-05-31T12:29:38.389Z,22.42
2017-05-31T12:30:38.693Z,22.27
2017-05-31T12:31:38.697Z,22.16
2017-05-31T12:32:38.380Z,22.08
2017-05-31T12:33:38.381Z,22.05
2017-05-31T12:34:38.399Z,21.93
2017-05-31T12:35:38.706Z,22.08
2017-05-31T12:36:38.705Z,22.15
2017-05-31T12:37:38.392Z,22.23
2017-05-31T12:38:38.433Z,22.2
2017-05-31T12:39:38.437Z,22.23
2017-05-31T12:40:38.408Z,22.15
2017-05-31T12:41:38.077Z,22.12
2017-05-31T12:42:38.721Z,22.04
2017-05-31T12:43:38.739Z,21.97
2017-05-31T12:44:38.400Z,22.02
2017-05-31T12:45:38.082Z,22.09
2017-05-31T12:46:38.742Z,22.22
2017-05-31T12:47:38.082Z,22.18
2017-05-31T12:48:38.106Z,22.14
2017-05-31T12:49:38.729Z,22.22
2017-05-31T12:50:38.108Z,22.39
2017-05-31T12:51:38.411Z,22.34
2017-05-31T12:52:38.733Z,22.46
2017-05-31T12:53:38.742Z,22.55
2017-05-31T12:54:38.535Z,22.48
2017-05-31T12:55:38.739Z,22.54